.
WxDataArchive / Data Records for 2009-05-20
2009-05-19 May 2009 2009-05-21

Data Records for Wednesday, 20 May 2009

Time	Temp	Chill	HIndex	Humid	Dewpt	 Wind 	HiWind	WindDir	Rain 	Barom 
-----	----	-----	------	-----	-----	------	------	-------	-----	----- 
00:00	55.7	55.7	55.7	63	43.3	0	0	---	0.00	30.286 
00:05	55.4	55.4	55.4	63	43.0	0	0	---	0.00	30.286 
00:10	55.3	55.3	55.3	65	43.7	0	0	---	0.00	30.286 
00:15	55.1	55.1	55.1	64	43.1	0	0	---	0.00	30.286 
00:20	55.0	55.0	55.0	63	42.6	0	0	---	0.00	30.286 
00:25	54.8	54.8	54.8	63	42.4	0	0	---	0.00	30.286 
00:30	54.8	54.8	54.8	62	42.0	0	0	---	0.00	30.290 
00:35	54.8	54.8	54.8	62	42.0	0	0	---	0.00	30.290 
00:40	54.8	54.8	54.8	62	42.0	0	0	---	0.00	30.290 
00:45	54.7	54.7	54.7	62	41.9	0	0	---	0.00	30.294 
00:50	54.5	54.5	54.5	63	42.2	0	0	---	0.00	30.294 
00:55	54.4	54.4	54.4	64	42.5	0	0	---	0.00	30.294 
01:00	54.2	54.2	54.2	65	42.7	0	0	---	0.00	30.290 
01:05	54.1	54.1	54.1	65	42.6	0	0	---	0.00	30.290 
01:10	53.9	53.9	53.9	65	42.4	0	0	---	0.00	30.290 
01:15	53.6	53.6	53.6	66	42.5	0	0	---	0.00	30.291 
01:20	53.5	53.5	53.5	67	42.8	0	0	---	0.00	30.291 
01:25	53.2	53.2	53.2	68	42.9	0	0	---	0.00	30.291 
01:30	52.8	52.8	52.8	68	42.5	0	0	---	0.00	30.296 
01:35	52.5	52.5	52.5	69	42.6	0	0	---	0.00	30.296 
01:40	52.3	52.3	52.3	70	42.8	0	0	---	0.00	30.296 
01:45	51.9	51.9	51.9	70	42.4	0	0	---	0.00	30.293 
01:50	51.6	51.6	51.6	70	42.1	0	0	---	0.00	30.293 
01:55	51.3	51.3	51.3	71	42.2	0	0	---	0.00	30.293 
02:00	51.1	51.1	51.1	72	42.4	0	0	---	0.00	30.290 
02:05	50.8	50.8	50.8	73	42.5	0	0	---	0.00	30.290 
02:10	50.7	50.7	50.7	73	42.4	0	0	---	0.00	30.290 
02:15	50.4	50.4	50.4	74	42.4	0	0	---	0.00	30.287 
02:20	50.2	50.2	50.2	74	42.2	0	0	---	0.00	30.287 
02:25	50.1	50.1	50.1	75	42.5	0	0	---	0.00	30.287 
02:30	49.9	49.9	49.9	75	42.3	0	0	---	0.00	30.287 
02:35	49.8	49.8	49.8	75	42.2	0	0	---	0.00	30.287 
02:40	49.6	49.6	49.6	75	42.0	0	0	---	0.00	30.287 
02:45	49.5	49.5	49.5	75	41.9	0	0	---	0.00	30.286 
02:50	49.4	49.4	49.4	76	42.2	0	0	---	0.00	30.286 
02:55	49.2	49.2	49.2	77	42.3	0	0	---	0.00	30.286 
03:00	49.2	49.2	49.2	77	42.3	0	0	---	0.00	30.285 
03:05	49.1	49.1	49.1	77	42.2	0	0	---	0.00	30.285 
03:10	48.9	48.9	48.9	76	41.7	0	0	---	0.00	30.285 
03:15	48.9	48.9	48.9	77	42.0	0	0	---	0.00	30.281 
03:20	48.8	48.8	48.8	77	41.9	0	0	---	0.00	30.281 
03:25	48.6	48.6	48.6	78	42.1	0	0	---	0.00	30.281 
03:30	48.5	48.5	48.5	78	42.0	0	0	---	0.00	30.281 
03:35	48.5	48.5	48.5	77	41.6	0	0	---	0.00	30.281 
03:40	48.6	48.6	48.6	77	41.7	0	0	---	0.00	30.281 
03:45	48.8	48.8	48.8	77	41.9	0	0	---	0.00	30.279 
03:50	48.8	48.8	48.8	76	41.6	0	0	---	0.00	30.279 
03:55	48.9	48.9	48.9	76	41.7	0	0	---	0.00	30.279 
04:00	48.9	48.9	48.9	76	41.7	0	0	---	0.00	30.278 
04:05	48.8	48.8	48.8	76	41.6	0	0	---	0.00	30.278 
04:10	48.6	48.6	48.6	76	41.4	0	0	---	0.00	30.278 
04:15	48.6	48.6	48.6	77	41.7	0	0	---	0.00	30.281 
04:20	48.5	48.5	48.5	77	41.6	0	0	---	0.00	30.281 
04:25	48.3	48.3	48.3	77	41.4	0	0	---	0.00	30.281 
04:30	48.2	48.2	48.2	76	41.0	0	0	---	0.00	30.285 
04:35	48.0	48.0	48.0	76	40.8	0	0	---	0.00	30.285 
04:40	47.9	47.9	47.9	77	41.0	0	0	---	0.00	30.285 
04:45	47.7	47.7	47.7	77	40.8	0	0	---	0.00	30.282 
04:50	47.7	47.7	47.7	78	41.2	0	0	---	0.00	30.282 
04:55	47.6	47.6	47.6	78	41.1	0	0	---	0.00	30.282 
05:00	47.4	47.4	47.4	79	41.2	0	0	---	0.00	30.284 
05:05	47.4	47.4	47.4	79	41.2	0	0	---	0.00	30.284 
05:10	47.4	47.4	47.4	79	41.2	0	0	---	0.00	30.284 
05:15	47.3	47.3	47.3	79	41.1	0	0	---	0.00	30.287 
05:20	47.3	47.3	47.3	79	41.1	0	0	---	0.00	30.287 
05:25	47.1	47.1	47.1	80	41.3	0	0	---	0.00	30.287 
05:30	47.0	47.0	47.0	80	41.2	0	0	---	0.00	30.286 
05:35	47.0	47.0	47.0	80	41.2	0	0	---	0.00	30.286 
05:40	46.8	46.8	46.8	80	41.0	0	0	---	0.00	30.286 
05:45	46.8	46.8	46.8	80	41.0	0	0	---	0.00	30.286 
05:50	46.8	46.8	46.8	80	41.0	0	0	---	0.00	30.286 
05:55	47.1	47.1	47.1	80	41.3	0	0	---	0.00	30.286 
06:00	47.4	47.4	47.4	79	41.2	0	0	---	0.00	30.287 
06:05	47.6	47.6	47.6	78	41.1	0	0	---	0.00	30.287 
06:10	47.9	47.9	47.9	77	41.0	0	0	---	0.00	30.287 
06:15	48.3	48.3	48.3	75	40.7	0	0	---	0.00	30.288 
06:20	48.9	48.9	48.9	73	40.6	0	0	---	0.00	30.288 
06:25	49.5	49.5	49.5	71	40.5	0	0	---	0.00	30.288 
06:30	50.1	50.1	50.1	69	40.3	0	0	---	0.00	30.293 
06:35	50.5	50.5	50.5	68	40.3	0	1	248	0.00	30.293 
06:40	51.0	51.0	51.0	68	40.8	0	0	---	0.00	30.293 
06:45	51.3	51.3	51.3	66	40.3	0	0	---	0.00	30.299 
06:50	51.6	51.6	51.6	65	40.2	0	0	---	0.00	30.299 
06:55	51.6	51.6	51.6	65	40.2	0	0	---	0.00	30.299 
07:00	51.7	51.7	51.7	65	40.3	0	0	---	0.00	30.301 
07:05	51.7	51.7	51.7	65	40.3	0	0	---	0.00	30.301 
07:10	52.0	52.0	52.0	65	40.6	0	0	---	0.00	30.301 
07:15	52.2	52.2	52.2	65	40.8	0	0	---	0.00	30.313 
07:20	52.6	52.6	52.6	65	41.2	0	0	---	0.00	30.313 
07:25	53.5	53.5	53.5	64	41.6	0	0	---	0.00	30.313 
07:30	54.5	54.5	54.5	61	41.3	0	0	---	0.00	30.314 
07:35	55.7	55.7	55.7	59	41.6	0	0	---	0.00	30.314 
07:40	56.6	56.6	56.6	58	42.0	0	0	---	0.00	30.314 
07:45	57.2	57.2	57.2	58	42.6	0	1	248	0.00	30.313 
07:50	57.6	57.6	57.6	59	43.4	0	1	248	0.00	30.313 
07:55	58.4	58.4	58.4	58	43.7	0	1	248	0.00	30.313 
08:00	59.3	59.3	59.3	56	43.6	0	1	248	0.00	30.311 
08:05	60.1	60.1	60.1	54	43.4	0	1	248	0.00	30.311 
08:10	60.9	60.9	60.9	52	43.2	0	1	248	0.00	30.311 
08:15	62.0	62.0	62.0	51	43.7	0	1	248	0.00	30.314 
08:20	63.2	63.2	63.2	49	43.7	0	1	248	0.00	30.314 
08:25	64.3	64.3	64.3	46	43.1	0	1	248	0.00	30.314 
08:30	64.8	64.8	64.8	44	42.4	0	3	248	0.00	30.312 
08:35	65.0	65.0	65.0	44	42.6	0	3	248	0.00	30.312 
08:40	65.2	65.2	65.2	44	42.7	0	2	248	0.00	30.312 
08:45	65.5	65.5	65.5	45	43.6	0	1	248	0.00	30.318 
08:50	65.6	65.6	65.6	42	41.9	0	2	248	0.00	30.318 
08:55	66.3	66.3	66.3	43	43.1	0	2	248	0.00	30.318 
09:00	66.6	66.6	66.6	39	40.9	1	3	248	0.00	30.317 
09:05	66.9	66.9	66.9	37	39.8	1	5	248	0.00	30.317 
09:10	67.4	67.4	67.4	40	42.2	1	3	270	0.00	30.317 
09:15	68.1	68.1	68.1	39	42.2	1	3	270	0.00	30.324 
09:20	68.6	68.6	68.6	38	42.0	1	3	248	0.00	30.324 
09:25	69.1	69.1	69.1	36	41.0	1	4	248	0.00	30.324 
09:30	69.3	69.3	69.3	36	41.2	1	4	292	0.00	30.323 
09:35	69.6	69.6	69.6	35	40.7	1	5	292	0.00	30.323 
09:40	69.6	69.6	69.6	36	41.5	2	3	270	0.00	30.323 
09:45	69.8	69.8	69.8	33	39.4	2	5	248	0.00	30.316 
09:50	69.8	69.8	69.8	34	40.2	2	5	270	0.00	30.316 
09:55	70.1	70.1	70.1	35	41.2	1	3	248	0.00	30.316 
10:00	70.4	70.4	70.4	34	40.7	2	4	270	0.00	30.317 
10:05	70.9	70.9	70.9	32	39.6	1	5	248	0.00	30.317 
10:10	71.1	71.1	71.1	31	38.9	1	4	292	0.00	30.317 
10:15	71.6	71.6	71.6	33	41.0	1	3	292	0.00	30.313 
10:20	72.0	72.0	72.0	33	41.3	1	4	248	0.00	30.313 
10:25	72.7	72.7	72.7	32	41.1	1	5	225	0.00	30.313 
10:30	72.8	72.8	72.8	31	40.4	2	4	248	0.00	30.312 
10:35	73.0	73.0	73.0	30	39.7	2	4	248	0.00	30.312 
10:40	73.0	73.0	73.0	30	39.7	2	6	270	0.00	30.312 
10:45	73.0	73.0	73.0	30	39.7	2	6	270	0.00	30.312 
10:50	73.2	73.2	73.2	33	42.4	1	7	248	0.00	30.312 
10:55	73.7	73.7	73.7	32	42.0	1	5	292	0.00	30.312 
11:00	73.9	73.9	73.9	31	41.3	2	7	248	0.00	30.306 
11:05	74.0	74.0	74.0	29	39.7	2	9	248	0.00	30.306 
11:10	74.2	74.2	74.2	32	42.4	1	3	270	0.00	30.306 
11:15	74.9	74.9	74.9	30	41.4	2	5	270	0.00	30.299 
11:20	75.1	75.1	77.0	30	41.5	2	6	248	0.00	30.299 
11:25	75.3	75.3	77.2	32	43.4	1	3	248	0.00	30.299 
11:30	75.6	75.6	77.1	29	41.1	1	5	90	0.00	30.295 
11:35	76.0	76.0	77.3	30	42.3	1	3	270	0.00	30.295 
11:40	76.5	76.5	77.6	32	44.4	0	3	248	0.00	30.295 
11:45	76.7	76.7	77.3	27	40.2	2	5	248	0.00	30.293 
11:50	76.3	76.3	77.5	31	43.4	2	4	248	0.00	30.293 
11:55	76.5	76.5	77.5	31	43.6	1	4	248	0.00	30.293 
12:00	76.3	76.3	77.2	28	40.8	2	4	292	0.00	30.294 
12:05	76.3	76.3	77.2	27	39.8	2	5	248	0.00	30.294 
12:10	76.8	76.8	77.8	34	46.3	1	4	292	0.00	30.294 
12:15	77.0	77.0	77.5	27	40.4	2	3	270	0.00	30.293 
12:20	77.2	77.2	77.6	28	41.6	1	4	248	0.00	30.293 
12:25	77.4	77.4	77.6	27	40.8	1	5	270	0.00	30.293 
12:30	77.7	77.7	77.8	28	42.0	1	5	270	0.00	30.283 
12:35	78.1	78.1	78.0	27	41.4	2	5	112	0.00	30.283 
12:40	77.9	77.9	77.8	26	40.2	2	5	270	0.00	30.283 
12:45	77.7	77.7	77.6	25	39.1	2	4	270	0.00	30.279 
12:50	78.5	78.5	78.2	27	41.7	1	2	248	0.00	30.279 
12:55	78.8	78.8	78.4	28	42.9	2	5	270	0.00	30.279 
13:00	78.8	78.8	78.2	25	40.0	2	4	270	0.00	30.278 
13:05	79.0	79.0	78.6	29	44.0	2	6	90	0.00	30.278 
13:10	79.4	79.4	78.5	25	40.5	1	3	90	0.00	30.278 
13:15	79.6	79.6	78.6	25	40.7	1	5	90	0.00	30.267 
13:20	79.8	79.8	78.8	25	40.8	1	6	225	0.00	30.267 
13:25	79.9	79.9	78.9	26	41.9	1	4	270	0.00	30.267 
13:30	80.1	80.1	79.0	26	42.1	2	6	248	0.00	30.265 
13:35	80.1	80.1	78.8	22	37.8	2	6	68	0.00	30.265 
13:40	80.1	80.1	78.9	24	40.0	2	4	270	0.00	30.265 
13:45	79.9	79.9	78.8	24	39.9	2	5	248	0.00	30.256 
13:50	80.3	80.3	79.0	24	40.2	1	4	248	0.00	30.256 
13:55	80.5	80.5	79.3	27	43.4	1	6	248	0.00	30.256 
14:00	80.1	80.1	78.9	25	41.1	2	6	248	0.00	30.252 
14:05	80.5	80.5	79.1	23	39.3	2	6	270	0.00	30.252 
14:10	80.9	80.9	79.5	26	42.8	1	5	90	0.00	30.252 
14:15	81.2	81.2	79.6	25	42.0	1	4	248	0.00	30.249 
14:20	81.4	81.4	79.7	25	42.2	1	4	45	0.00	30.249 
14:25	81.8	81.8	80.1	27	44.5	1	3	45	0.00	30.249 
14:30	82.0	82.0	80.1	25	42.7	1	4	315	0.00	30.243 
14:35	82.0	82.0	80.0	23	40.5	2	5	292	0.00	30.243 
14:40	82.2	82.2	80.0	21	38.4	2	5	90	0.00	30.243 
14:45	82.2	82.2	80.3	25	42.9	1	3	90	0.00	30.237 
14:50	82.2	82.2	80.2	24	41.8	1	4	248	0.00	30.237 
14:55	82.2	82.2	80.3	25	42.9	1	3	248	0.00	30.237 
15:00	82.6	82.6	80.4	22	39.9	1	3	270	0.00	30.228 
15:05	82.8	82.8	80.7	25	43.4	1	4	90	0.00	30.228 
15:10	82.6	82.6	80.4	22	39.9	2	4	270	0.00	30.228 
15:15	82.4	82.4	80.3	24	42.0	2	6	90	0.00	30.221 
15:20	82.4	82.4	80.2	22	39.7	1	3	68	0.00	30.221 
15:25	82.2	82.2	80.2	24	41.8	2	6	292	0.00	30.221 
15:30	82.2	82.2	80.0	21	38.4	2	6	248	0.00	30.216 
15:35	82.6	82.6	80.4	23	41.0	2	4	112	0.00	30.216 
15:40	83.0	83.0	80.8	25	43.5	2	7	45	0.00	30.216 
15:45	83.2	83.2	80.9	24	42.6	2	6	112	0.00	30.207 
15:50	83.2	83.2	80.8	23	41.5	2	5	112	0.00	30.207 
15:55	83.2	83.2	80.8	23	41.5	1	3	0	0.00	30.207 
16:00	83.2	83.2	80.8	23	41.5	2	6	270	0.00	30.200 
16:05	83.2	83.2	80.9	24	42.6	1	4	292	0.00	30.200 
16:10	83.6	83.6	81.1	22	40.7	1	4	68	0.00	30.200 
16:15	83.6	83.6	81.2	24	43.0	2	8	248	0.00	30.201 
16:20	83.0	83.0	80.7	23	41.4	2	5	270	0.00	30.201 
16:25	83.0	83.0	80.8	24	42.5	1	3	270	0.00	30.201 
16:30	83.2	83.2	81.0	25	43.7	1	6	292	0.00	30.197 
16:35	83.4	83.4	81.3	27	45.9	2	5	90	0.00	30.197 
16:40	83.4	83.4	80.8	20	38.1	2	7	45	0.00	30.197 
16:45	83.4	83.4	80.9	21	39.3	2	6	90	0.00	30.187 
16:50	83.4	83.4	80.8	19	36.8	2	5	112	0.00	30.187 
16:55	83.6	83.6	81.0	21	39.5	1	4	90	0.00	30.187 
17:00	83.8	83.8	81.1	20	38.4	1	5	90	0.00	30.182 
17:05	83.4	83.4	80.8	20	38.1	2	5	292	0.00	30.182 
17:10	83.4	83.4	80.8	20	38.1	1	5	68	0.00	30.182 
17:15	83.8	83.8	81.2	21	39.7	1	6	248	0.00	30.184 
17:20	83.8	83.8	81.2	22	40.9	1	4	270	0.00	30.184 
17:25	83.8	83.8	81.1	20	38.4	2	7	90	0.00	30.184 
17:30	83.6	83.6	81.0	20	38.3	1	5	270	0.00	30.178 
17:35	83.2	83.2	80.7	19	36.6	2	7	270	0.00	30.178 
17:40	83.2	83.2	80.7	20	37.9	1	3	270	0.00	30.178 
17:45	83.0	83.0	80.5	19	36.5	2	7	270	0.00	30.176 
17:50	83.2	83.2	80.7	19	36.6	2	6	270	0.00	30.176 
17:55	83.4	83.4	80.8	19	36.8	1	3	292	0.00	30.176 
18:00	83.2	83.2	80.7	20	37.9	1	5	292	0.00	30.171 
18:05	83.2	83.2	80.8	22	40.4	1	5	315	0.00	30.171 
18:10	82.6	82.6	80.2	19	36.1	1	5	248	0.00	30.171 
18:15	82.2	82.2	80.0	20	37.1	1	3	315	0.00	30.162 
18:20	81.8	81.8	79.7	19	35.5	2	5	112	0.00	30.162 
18:25	81.6	81.6	79.6	20	36.6	1	6	270	0.00	30.162 
18:30	81.4	81.4	79.5	20	36.5	1	3	68	0.00	30.164 
18:35	81.2	81.2	79.3	19	35.0	1	4	270	0.00	30.164 
18:40	81.1	81.1	79.2	19	34.9	1	6	315	0.00	30.164 
18:45	80.9	80.9	79.2	21	37.3	1	4	0	0.00	30.158 
18:50	80.9	80.9	79.2	21	37.3	1	5	90	0.00	30.158 
18:55	80.7	80.7	79.1	21	37.1	1	5	270	0.00	30.158 
19:00	80.5	80.5	78.9	20	35.7	1	5	292	0.00	30.154 
19:05	80.5	80.5	78.9	21	37.0	1	5	270	0.00	30.154 
19:10	80.1	80.1	78.8	22	37.8	0	2	248	0.00	30.154 
19:15	80.1	80.1	78.8	22	37.8	1	4	90	0.00	30.148 
19:20	79.9	79.9	78.6	22	37.6	0	2	315	0.00	30.148 
19:25	79.6	79.6	78.5	22	37.4	0	2	112	0.00	30.148 
19:30	79.6	79.6	78.5	23	38.5	0	2	135	0.00	30.145 
19:35	79.4	79.4	78.3	22	37.2	1	2	292	0.00	30.145 
19:40	79.2	79.2	78.2	21	35.9	0	2	270	0.00	30.145 
19:45	79.0	79.0	78.2	23	38.0	0	1	45	0.00	30.144 
19:50	78.6	78.6	77.9	22	36.6	0	4	270	0.00	30.144 
19:55	78.3	78.3	77.7	22	36.3	0	2	90	0.00	30.144 
20:00	77.9	77.9	77.5	22	36.0	0	1	90	0.00	30.148 
20:05	77.6	77.6	77.5	23	36.9	0	2	90	0.00	30.148 
20:10	77.4	77.4	77.3	22	35.6	0	2	90	0.00	30.148 
20:15	77.0	77.0	77.2	23	36.3	0	1	90	0.00	30.139 
20:20	76.7	76.7	77.0	23	36.1	0	0	---	0.00	30.139 
20:25	76.1	76.1	76.8	24	36.7	0	1	90	0.00	30.139 
20:30	75.8	75.8	76.8	25	37.5	0	0	---	0.00	30.143 
20:35	75.3	75.3	76.6	25	37.0	0	0	---	0.00	30.143 
20:40	74.9	74.9	74.9	24	35.7	0	0	---	0.00	30.143 
20:45	74.4	74.4	74.4	25	36.3	0	0	---	0.00	30.141 
20:50	74.0	74.0	74.0	25	35.9	0	0	---	0.00	30.141 
20:55	73.7	73.7	73.7	26	36.7	0	1	90	0.00	30.141 
21:00	73.2	73.2	73.2	26	36.2	0	0	---	0.00	30.140 
21:05	72.7	72.7	72.7	27	36.8	0	0	---	0.00	30.140 
21:10	72.0	72.0	72.0	27	36.2	0	0	---	0.00	30.140 
21:15	71.5	71.5	71.5	28	36.7	0	0	---	0.00	30.140 
21:20	70.8	70.8	70.8	27	35.2	0	0	---	0.00	30.140 
21:25	70.3	70.3	70.3	28	35.6	0	0	---	0.00	30.140 
21:30	69.8	69.8	69.8	29	36.1	0	0	---	0.00	30.141 
21:35	69.1	69.1	69.1	29	35.5	0	0	---	0.00	30.141 
21:40	68.6	68.6	68.6	31	36.8	0	0	---	0.00	30.141 
21:45	68.1	68.1	68.1	32	37.1	0	0	---	0.00	30.144 
21:50	67.6	67.6	67.6	34	38.2	0	0	---	0.00	30.144 
21:55	67.1	67.1	67.1	34	37.8	0	0	---	0.00	30.144 
22:00	66.6	66.6	66.6	35	38.1	0	0	---	0.00	30.146 
22:05	66.1	66.1	66.1	37	39.1	0	0	---	0.00	30.146 
22:10	65.6	65.6	65.6	39	40.0	0	0	---	0.00	30.146 
22:15	65.0	65.0	65.0	39	39.4	0	0	---	0.00	30.146 
22:20	64.5	64.5	64.5	40	39.6	0	0	---	0.00	30.146 
22:25	64.0	64.0	64.0	40	39.2	0	0	---	0.00	30.146 
22:30	63.5	63.5	63.5	44	41.2	0	0	---	0.00	30.146 
22:35	63.2	63.2	63.2	44	40.9	0	0	---	0.00	30.146 
22:40	62.7	62.7	62.7	45	41.0	0	0	---	0.00	30.146 
22:45	62.3	62.3	62.3	46	41.3	0	0	---	0.00	30.149 
22:50	61.8	61.8	61.8	46	40.8	0	0	---	0.00	30.149 
22:55	61.5	61.5	61.5	46	40.5	0	0	---	0.00	30.149 
23:00	61.2	61.2	61.2	47	40.8	0	0	---	0.00	30.152 
23:05	60.9	60.9	60.9	48	41.1	0	0	---	0.00	30.152 
23:10	60.5	60.5	60.5	49	41.2	0	0	---	0.00	30.152 
23:15	60.2	60.2	60.2	49	41.0	0	0	---	0.00	30.149 
23:20	59.9	59.9	59.9	51	41.7	0	0	---	0.00	30.149 
23:25	59.6	59.6	59.6	50	40.9	0	0	---	0.00	30.149 
23:30	59.3	59.3	59.3	50	40.7	0	0	---	0.00	30.148 
23:35	59.3	59.3	59.3	50	40.7	0	0	---	0.00	30.148 
23:40	59.3	59.3	59.3	49	40.1	0	0	---	0.00	30.148 
23:45	59.2	59.2	59.2	50	40.6	0	0	---	0.00	30.150 
23:50	58.9	58.9	58.9	50	40.3	0	0	---	0.00	30.150 
23:55	58.7	58.7	58.7	50	40.1	0	0	---	0.00	30.150 

CoCoRaHS
IN-AL-39
A2 Web Hosting
Creative Commons License
GoDaddy
search engine by freefind advanced

loaded 2018-11-19 10:54:41 • last modified 2010-11-18 10:43:29
Privacy PolicyDisclaimer
• wx.awcolley.com is powered by PmWiki v.2002016 •
• all content (unless otherwise noted) © 2018 A W Colley